sensor_id;sensor_type;location;lat;lon;timestamp;P1;durP1;ratioP1;P2;durP2;ratioP2
77310;SDS011;66371;52.714;5.074;2023-06-10T00:01:28;9.77;;;5.33;;
77310;SDS011;66371;52.714;5.074;2023-06-10T00:03:53;7.43;;;5.53;;
77310;SDS011;66371;52.714;5.074;2023-06-10T00:06:19;5.32;;;4.72;;
77310;SDS011;66371;52.714;5.074;2023-06-10T00:08:46;5.95;;;5.03;;
77310;SDS011;66371;52.714;5.074;2023-06-10T00:11:12;6.38;;;5.30;;
77310;SDS011;66371;52.714;5.074;2023-06-10T00:13:37;6.10;;;5.10;;
77310;SDS011;66371;52.714;5.074;2023-06-10T00:16:03;6.80;;;5.07;;
77310;SDS011;66371;52.714;5.074;2023-06-10T00:18:28;7.93;;;5.70;;
77310;SDS011;66371;52.714;5.074;2023-06-10T00:20:56;5.28;;;4.57;;
77310;SDS011;66371;52.714;5.074;2023-06-10T00:23:28;5.75;;;5.15;;
77310;SDS011;66371;52.714;5.074;2023-06-10T00:25:56;6.07;;;4.68;;
77310;SDS011;66371;52.714;5.074;2023-06-10T00:28:24;6.47;;;5.05;;
77310;SDS011;66371;52.714;5.074;2023-06-10T00:30:50;9.50;;;5.40;;
77310;SDS011;66371;52.714;5.074;2023-06-10T00:33:15;7.80;;;5.15;;
77310;SDS011;66371;52.714;5.074;2023-06-10T00:35:41;5.93;;;4.90;;
77310;SDS011;66371;52.714;5.074;2023-06-10T00:38:06;6.28;;;5.45;;
77310;SDS011;66371;52.714;5.074;2023-06-10T00:40:33;6.68;;;6.07;;
77310;SDS011;66371;52.714;5.074;2023-06-10T00:45:29;7.13;;;5.10;;
77310;SDS011;66371;52.714;5.074;2023-06-10T00:47:55;7.30;;;6.40;;
77310;SDS011;66371;52.714;5.074;2023-06-10T00:50:20;6.70;;;4.65;;
77310;SDS011;66371;52.714;5.074;2023-06-10T00:52:46;7.03;;;5.75;;
77310;SDS011;66371;52.714;5.074;2023-06-10T00:55:13;5.78;;;5.07;;
77310;SDS011;66371;52.714;5.074;2023-06-10T00:57:41;5.07;;;4.57;;
77310;SDS011;66371;52.714;5.074;2023-06-10T01:00:09;5.88;;;5.13;;
77310;SDS011;66371;52.714;5.074;2023-06-10T01:02:36;8.38;;;5.93;;
77310;SDS011;66371;52.714;5.074;2023-06-10T01:05:01;5.90;;;4.65;;
77310;SDS011;66371;52.714;5.074;2023-06-10T01:07:33;5.55;;;4.53;;
77310;SDS011;66371;52.714;5.074;2023-06-10T01:15:13;5.68;;;5.05;;
77310;SDS011;66371;52.714;5.074;2023-06-10T01:20:41;6.45;;;5.85;;
77310;SDS011;66371;52.714;5.074;2023-06-10T01:23:08;6.82;;;6.15;;
77310;SDS011;66371;52.714;5.074;2023-06-10T01:25:37;11.05;;;5.25;;
77310;SDS011;66371;52.714;5.074;2023-06-10T01:30:32;5.88;;;5.30;;
77310;SDS011;66371;52.714;5.074;2023-06-10T01:33:25;8.57;;;5.50;;
77310;SDS011;66371;52.714;5.074;2023-06-10T01:35:55;5.75;;;4.97;;
77310;SDS011;66371;52.714;5.074;2023-06-10T01:38:22;4.95;;;3.92;;
77310;SDS011;66371;52.714;5.074;2023-06-10T01:40:50;7.85;;;7.05;;
77310;SDS011;66371;52.714;5.074;2023-06-10T01:43:19;9.07;;;6.80;;
77310;SDS011;66371;52.714;5.074;2023-06-10T01:45:45;6.65;;;5.05;;
77310;SDS011;66371;52.714;5.074;2023-06-10T01:48:10;7.60;;;4.95;;
77310;SDS011;66371;52.714;5.074;2023-06-10T01:50:36;8.18;;;5.07;;
77310;SDS011;66371;52.714;5.074;2023-06-10T01:53:01;6.75;;;6.15;;
77310;SDS011;66371;52.714;5.074;2023-06-10T01:55:27;5.88;;;5.00;;
77310;SDS011;66371;52.714;5.074;2023-06-10T01:57:52;6.13;;;5.43;;
77310;SDS011;66371;52.714;5.074;2023-06-10T02:00:17;6.50;;;4.45;;
77310;SDS011;66371;52.714;5.074;2023-06-10T02:02:43;5.80;;;5.05;;
77310;SDS011;66371;52.714;5.074;2023-06-10T02:05:08;6.33;;;5.73;;
77310;SDS011;66371;52.714;5.074;2023-06-10T02:07:34;6.03;;;5.32;;
77310;SDS011;66371;52.714;5.074;2023-06-10T02:09:59;6.53;;;5.13;;
77310;SDS011;66371;52.714;5.074;2023-06-10T02:12:25;8.13;;;5.85;;
77310;SDS011;66371;52.714;5.074;2023-06-10T02:14:50;6.95;;;4.72;;
77310;SDS011;66371;52.714;5.074;2023-06-10T02:17:16;5.80;;;4.75;;
77310;SDS011;66371;52.714;5.074;2023-06-10T02:19:41;6.83;;;5.37;;
77310;SDS011;66371;52.714;5.074;2023-06-10T02:22:08;7.28;;;6.20;;
77310;SDS011;66371;52.714;5.074;2023-06-10T02:24:35;7.28;;;6.03;;
77310;SDS011;66371;52.714;5.074;2023-06-10T02:27:03;7.47;;;6.78;;
77310;SDS011;66371;52.714;5.074;2023-06-10T02:29:31;7.20;;;6.50;;
77310;SDS011;66371;52.714;5.074;2023-06-10T02:31:58;6.20;;;5.60;;
77310;SDS011;66371;52.714;5.074;2023-06-10T02:34:23;6.70;;;6.07;;
77310;SDS011;66371;52.714;5.074;2023-06-10T02:36:49;8.48;;;6.20;;
77310;SDS011;66371;52.714;5.074;2023-06-10T02:39:16;6.97;;;5.70;;
77310;SDS011;66371;52.714;5.074;2023-06-10T02:41:41;7.20;;;5.90;;
77310;SDS011;66371;52.714;5.074;2023-06-10T02:44:07;6.00;;;4.93;;
77310;SDS011;66371;52.714;5.074;2023-06-10T02:46:32;6.03;;;5.43;;
77310;SDS011;66371;52.714;5.074;2023-06-10T02:48:57;6.28;;;5.68;;
77310;SDS011;66371;52.714;5.074;2023-06-10T02:51:23;8.83;;;8.03;;
77310;SDS011;66371;52.714;5.074;2023-06-10T02:53:48;7.13;;;6.15;;
77310;SDS011;66371;52.714;5.074;2023-06-10T02:56:15;7.03;;;5.32;;
77310;SDS011;66371;52.714;5.074;2023-06-10T02:58:41;6.93;;;6.20;;
77310;SDS011;66371;52.714;5.074;2023-06-10T03:01:07;6.63;;;5.78;;
77310;SDS011;66371;52.714;5.074;2023-06-10T03:03:34;7.88;;;7.07;;
77310;SDS011;66371;52.714;5.074;2023-06-10T03:06:00;7.18;;;5.55;;
77310;SDS011;66371;52.714;5.074;2023-06-10T03:08:25;8.10;;;6.55;;
77310;SDS011;66371;52.714;5.074;2023-06-10T03:10:51;11.43;;;7.10;;
77310;SDS011;66371;52.714;5.074;2023-06-10T03:13:16;6.60;;;5.90;;
77310;SDS011;66371;52.714;5.074;2023-06-10T03:15:41;8.38;;;6.13;;
77310;SDS011;66371;52.714;5.074;2023-06-10T03:18:07;6.30;;;5.70;;
77310;SDS011;66371;52.714;5.074;2023-06-10T03:20:32;7.43;;;6.78;;
77310;SDS011;66371;52.714;5.074;2023-06-10T03:23:03;7.65;;;5.80;;
77310;SDS011;66371;52.714;5.074;2023-06-10T03:25:31;6.53;;;5.82;;
77310;SDS011;66371;52.714;5.074;2023-06-10T03:27:57;6.22;;;5.72;;
77310;SDS011;66371;52.714;5.074;2023-06-10T03:30:22;6.88;;;5.50;;
77310;SDS011;66371;52.714;5.074;2023-06-10T03:32:47;6.80;;;5.70;;
77310;SDS011;66371;52.714;5.074;2023-06-10T03:35:14;6.93;;;6.22;;
77310;SDS011;66371;52.714;5.074;2023-06-10T03:37:40;7.47;;;6.15;;
77310;SDS011;66371;52.714;5.074;2023-06-10T03:40:05;7.53;;;6.30;;
77310;SDS011;66371;52.714;5.074;2023-06-10T03:42:33;5.75;;;5.18;;
77310;SDS011;66371;52.714;5.074;2023-06-10T03:44:58;6.55;;;5.95;;
77310;SDS011;66371;52.714;5.074;2023-06-10T03:47:24;6.50;;;5.82;;
77310;SDS011;66371;52.714;5.074;2023-06-10T03:49:49;7.30;;;6.47;;
77310;SDS011;66371;52.714;5.074;2023-06-10T03:52:15;6.60;;;5.40;;
77310;SDS011;66371;52.714;5.074;2023-06-10T03:54:40;6.07;;;5.33;;
77310;SDS011;66371;52.714;5.074;2023-06-10T03:57:05;7.57;;;5.68;;
77310;SDS011;66371;52.714;5.074;2023-06-10T03:59:31;7.70;;;6.88;;
77310;SDS011;66371;52.714;5.074;2023-06-10T04:01:56;6.40;;;5.80;;
77310;SDS011;66371;52.714;5.074;2023-06-10T04:04:22;10.25;;;6.22;;
77310;SDS011;66371;52.714;5.074;2023-06-10T04:06:48;5.97;;;5.35;;
77310;SDS011;66371;52.714;5.074;2023-06-10T04:09:14;8.43;;;7.72;;
77310;SDS011;66371;52.714;5.074;2023-06-10T04:11:41;8.60;;;6.53;;
77310;SDS011;66371;52.714;5.074;2023-06-10T04:14:06;7.68;;;5.97;;
77310;SDS011;66371;52.714;5.074;2023-06-10T04:16:33;8.02;;;7.30;;
77310;SDS011;66371;52.714;5.074;2023-06-10T04:18:59;7.80;;;5.70;;
77310;SDS011;66371;52.714;5.074;2023-06-10T04:21:25;8.57;;;6.00;;
77310;SDS011;66371;52.714;5.074;2023-06-10T04:23:51;8.80;;;6.10;;
77310;SDS011;66371;52.714;5.074;2023-06-10T04:26:16;7.68;;;5.53;;
77310;SDS011;66371;52.714;5.074;2023-06-10T04:28:42;7.40;;;6.38;;
77310;SDS011;66371;52.714;5.074;2023-06-10T04:31:08;7.03;;;5.80;;
77310;SDS011;66371;52.714;5.074;2023-06-10T04:33:34;5.53;;;4.43;;
77310;SDS011;66371;52.714;5.074;2023-06-10T04:36:00;6.75;;;6.13;;
77310;SDS011;66371;52.714;5.074;2023-06-10T04:38:26;6.65;;;5.95;;
77310;SDS011;66371;52.714;5.074;2023-06-10T04:40:51;7.20;;;5.05;;
77310;SDS011;66371;52.714;5.074;2023-06-10T04:43:17;6.72;;;6.00;;
77310;SDS011;66371;52.714;5.074;2023-06-10T04:45:42;5.90;;;4.95;;
77310;SDS011;66371;52.714;5.074;2023-06-10T04:48:09;6.43;;;5.20;;
77310;SDS011;66371;52.714;5.074;2023-06-10T04:50:35;6.25;;;5.45;;
77310;SDS011;66371;52.714;5.074;2023-06-10T04:53:01;6.72;;;5.45;;
77310;SDS011;66371;52.714;5.074;2023-06-10T04:55:26;7.23;;;5.50;;
77310;SDS011;66371;52.714;5.074;2023-06-10T04:57:52;7.90;;;5.70;;
77310;SDS011;66371;52.714;5.074;2023-06-10T05:00:17;7.00;;;5.43;;
77310;SDS011;66371;52.714;5.074;2023-06-10T05:02:42;6.40;;;5.68;;
77310;SDS011;66371;52.714;5.074;2023-06-10T05:05:08;7.80;;;6.22;;
77310;SDS011;66371;52.714;5.074;2023-06-10T05:07:33;6.82;;;5.90;;
77310;SDS011;66371;52.714;5.074;2023-06-10T05:09:59;6.03;;;5.35;;
77310;SDS011;66371;52.714;5.074;2023-06-10T05:12:25;6.53;;;5.70;;
77310;SDS011;66371;52.714;5.074;2023-06-10T05:14:50;9.07;;;6.38;;
77310;SDS011;66371;52.714;5.074;2023-06-10T05:17:16;5.43;;;4.93;;
77310;SDS011;66371;52.714;5.074;2023-06-10T05:19:41;6.37;;;5.77;;
77310;SDS011;66371;52.714;5.074;2023-06-10T05:22:08;6.43;;;5.03;;
77310;SDS011;66371;52.714;5.074;2023-06-10T05:24:34;8.05;;;5.18;;
77310;SDS011;66371;52.714;5.074;2023-06-10T05:26:59;5.60;;;4.60;;
77310;SDS011;66371;52.714;5.074;2023-06-10T05:29:25;4.90;;;4.38;;
77310;SDS011;66371;52.714;5.074;2023-06-10T05:31:50;8.65;;;5.45;;
77310;SDS011;66371;52.714;5.074;2023-06-10T05:34:16;5.65;;;4.65;;
77310;SDS011;66371;52.714;5.074;2023-06-10T05:36:41;7.25;;;5.05;;
77310;SDS011;66371;52.714;5.074;2023-06-10T05:39:07;6.10;;;5.57;;
77310;SDS011;66371;52.714;5.074;2023-06-10T05:41:33;5.25;;;4.72;;
77310;SDS011;66371;52.714;5.074;2023-06-10T05:43:59;5.47;;;4.93;;
77310;SDS011;66371;52.714;5.074;2023-06-10T05:46:24;8.90;;;5.00;;
77310;SDS011;66371;52.714;5.074;2023-06-10T05:48:50;5.93;;;4.38;;
77310;SDS011;66371;52.714;5.074;2023-06-10T05:51:15;7.05;;;5.18;;
77310;SDS011;66371;52.714;5.074;2023-06-10T05:53:40;7.20;;;4.80;;
77310;SDS011;66371;52.714;5.074;2023-06-10T05:56:06;6.43;;;5.65;;
77310;SDS011;66371;52.714;5.074;2023-06-10T05:58:31;7.10;;;4.85;;
77310;SDS011;66371;52.714;5.074;2023-06-10T06:00:57;6.15;;;4.43;;
77310;SDS011;66371;52.714;5.074;2023-06-10T06:03:22;5.93;;;5.00;;
77310;SDS011;66371;52.714;5.074;2023-06-10T06:05:47;8.87;;;5.00;;
77310;SDS011;66371;52.714;5.074;2023-06-10T06:08:13;5.03;;;3.60;;
77310;SDS011;66371;52.714;5.074;2023-06-10T06:10:38;5.68;;;4.40;;
77310;SDS011;66371;52.714;5.074;2023-06-10T06:13:04;6.38;;;5.38;;
77310;SDS011;66371;52.714;5.074;2023-06-10T06:15:29;6.37;;;4.80;;
77310;SDS011;66371;52.714;5.074;2023-06-10T06:17:55;5.10;;;4.27;;
77310;SDS011;66371;52.714;5.074;2023-06-10T06:20:21;5.78;;;3.63;;
77310;SDS011;66371;52.714;5.074;2023-06-10T06:22:47;5.22;;;4.72;;
77310;SDS011;66371;52.714;5.074;2023-06-10T06:25:13;10.80;;;4.85;;
77310;SDS011;66371;52.714;5.074;2023-06-10T06:27:38;5.15;;;3.95;;
77310;SDS011;66371;52.714;5.074;2023-06-10T06:30:04;5.80;;;5.20;;
77310;SDS011;66371;52.714;5.074;2023-06-10T06:32:30;7.03;;;4.20;;
77310;SDS011;66371;52.714;5.074;2023-06-10T06:34:55;5.13;;;4.63;;
77310;SDS011;66371;52.714;5.074;2023-06-10T06:37:21;6.80;;;4.85;;
77310;SDS011;66371;52.714;5.074;2023-06-10T06:39:48;5.53;;;4.28;;
77310;SDS011;66371;52.714;5.074;2023-06-10T06:42:15;6.20;;;5.18;;
77310;SDS011;66371;52.714;5.074;2023-06-10T06:44:40;5.68;;;5.07;;
77310;SDS011;66371;52.714;5.074;2023-06-10T06:47:06;5.30;;;4.45;;
77310;SDS011;66371;52.714;5.074;2023-06-10T06:49:31;7.50;;;4.78;;
77310;SDS011;66371;52.714;5.074;2023-06-10T06:51:57;5.60;;;4.27;;
77310;SDS011;66371;52.714;5.074;2023-06-10T06:54:22;5.10;;;3.87;;
77310;SDS011;66371;52.714;5.074;2023-06-10T06:56:47;5.57;;;4.77;;
77310;SDS011;66371;52.714;5.074;2023-06-10T06:59:13;5.10;;;4.68;;
77310;SDS011;66371;52.714;5.074;2023-06-10T07:01:39;6.30;;;4.38;;
77310;SDS011;66371;52.714;5.074;2023-06-10T07:04:04;5.53;;;3.78;;
77310;SDS011;66371;52.714;5.074;2023-06-10T07:06:30;4.95;;;4.45;;
77310;SDS011;66371;52.714;5.074;2023-06-10T07:08:55;5.07;;;4.57;;
77310;SDS011;66371;52.714;5.074;2023-06-10T07:11:21;6.25;;;4.25;;
77310;SDS011;66371;52.714;5.074;2023-06-10T07:13:47;5.75;;;4.57;;
77310;SDS011;66371;52.714;5.074;2023-06-10T07:16:12;8.05;;;4.25;;
77310;SDS011;66371;52.714;5.074;2023-06-10T07:18:37;6.28;;;5.00;;
77310;SDS011;66371;52.714;5.074;2023-06-10T07:21:03;5.32;;;4.32;;
77310;SDS011;66371;52.714;5.074;2023-06-10T07:23:28;4.40;;;3.40;;
77310;SDS011;66371;52.714;5.074;2023-06-10T07:25:54;4.82;;;4.30;;
77310;SDS011;66371;52.714;5.074;2023-06-10T07:28:19;5.20;;;3.95;;
77310;SDS011;66371;52.714;5.074;2023-06-10T07:30:45;5.40;;;4.25;;
77310;SDS011;66371;52.714;5.074;2023-06-10T07:33:10;6.47;;;4.40;;
77310;SDS011;66371;52.714;5.074;2023-06-10T07:35:36;5.25;;;4.50;;
77310;SDS011;66371;52.714;5.074;2023-06-10T07:38:01;7.25;;;3.65;;
77310;SDS011;66371;52.714;5.074;2023-06-10T07:40:26;5.47;;;4.55;;
77310;SDS011;66371;52.714;5.074;2023-06-10T07:42:52;5.43;;;4.22;;
77310;SDS011;66371;52.714;5.074;2023-06-10T07:45:18;5.55;;;4.38;;
77310;SDS011;66371;52.714;5.074;2023-06-10T07:47:43;5.28;;;3.72;;
77310;SDS011;66371;52.714;5.074;2023-06-10T07:50:09;5.25;;;4.00;;
77310;SDS011;66371;52.714;5.074;2023-06-10T07:52:35;6.05;;;4.70;;
77310;SDS011;66371;52.714;5.074;2023-06-10T07:55:16;7.35;;;3.70;;
77310;SDS011;66371;52.714;5.074;2023-06-10T07:57:42;5.97;;;4.00;;
77310;SDS011;66371;52.714;5.074;2023-06-10T08:00:07;4.05;;;3.25;;
77310;SDS011;66371;52.714;5.074;2023-06-10T08:02:33;5.25;;;3.88;;
77310;SDS011;66371;52.714;5.074;2023-06-10T08:04:59;5.70;;;3.40;;
77310;SDS011;66371;52.714;5.074;2023-06-10T08:07:24;4.30;;;3.20;;
77310;SDS011;66371;52.714;5.074;2023-06-10T08:09:50;6.13;;;3.45;;
77310;SDS011;66371;52.714;5.074;2023-06-10T08:12:16;6.50;;;4.30;;
77310;SDS011;66371;52.714;5.074;2023-06-10T08:14:41;5.85;;;4.18;;
77310;SDS011;66371;52.714;5.074;2023-06-10T08:17:06;7.75;;;5.47;;
77310;SDS011;66371;52.714;5.074;2023-06-10T08:19:32;6.57;;;4.38;;
77310;SDS011;66371;52.714;5.074;2023-06-10T08:21:57;4.88;;;3.45;;
77310;SDS011;66371;52.714;5.074;2023-06-10T08:24:23;5.57;;;4.18;;
77310;SDS011;66371;52.714;5.074;2023-06-10T08:26:48;5.53;;;3.70;;
77310;SDS011;66371;52.714;5.074;2023-06-10T08:29:14;5.33;;;3.97;;
77310;SDS011;66371;52.714;5.074;2023-06-10T08:31:42;5.50;;;4.28;;
77310;SDS011;66371;52.714;5.074;2023-06-10T08:34:08;4.68;;;3.90;;
77310;SDS011;66371;52.714;5.074;2023-06-10T08:36:34;6.65;;;3.38;;
77310;SDS011;66371;52.714;5.074;2023-06-10T08:39:00;5.45;;;3.65;;
77310;SDS011;66371;52.714;5.074;2023-06-10T08:41:25;6.80;;;3.70;;
77310;SDS011;66371;52.714;5.074;2023-06-10T08:46:24;5.22;;;3.72;;
77310;SDS011;66371;52.714;5.074;2023-06-10T08:48:51;4.80;;;3.90;;
77310;SDS011;66371;52.714;5.074;2023-06-10T08:51:20;5.32;;;3.83;;
77310;SDS011;66371;52.714;5.074;2023-06-10T08:53:54;6.80;;;3.97;;
77310;SDS011;66371;52.714;5.074;2023-06-10T08:56:26;6.07;;;3.72;;
77310;SDS011;66371;52.714;5.074;2023-06-10T08:58:55;4.75;;;3.92;;
77310;SDS011;66371;52.714;5.074;2023-06-10T09:01:23;7.90;;;4.82;;
77310;SDS011;66371;52.714;5.074;2023-06-10T09:03:50;5.47;;;4.07;;
77310;SDS011;66371;52.714;5.074;2023-06-10T09:06:16;4.28;;;3.88;;
77310;SDS011;66371;52.714;5.074;2023-06-10T09:08:43;7.32;;;6.32;;
77310;SDS011;66371;52.714;5.074;2023-06-10T09:11:08;5.47;;;3.58;;
77310;SDS011;66371;52.714;5.074;2023-06-10T09:13:34;5.93;;;4.38;;
77310;SDS011;66371;52.714;5.074;2023-06-10T09:15:59;5.85;;;4.50;;
77310;SDS011;66371;52.714;5.074;2023-06-10T09:18:27;5.32;;;3.67;;
77310;SDS011;66371;52.714;5.074;2023-06-10T09:20:52;5.82;;;3.92;;
77310;SDS011;66371;52.714;5.074;2023-06-10T09:23:17;6.72;;;4.05;;
77310;SDS011;66371;52.714;5.074;2023-06-10T09:25:43;6.00;;;4.05;;
77310;SDS011;66371;52.714;5.074;2023-06-10T09:28:13;8.95;;;4.70;;
77310;SDS011;66371;52.714;5.074;2023-06-10T09:30:39;4.28;;;2.67;;
77310;SDS011;66371;52.714;5.074;2023-06-10T09:33:12;5.43;;;3.15;;
77310;SDS011;66371;52.714;5.074;2023-06-10T09:35:46;5.57;;;3.75;;
77310;SDS011;66371;52.714;5.074;2023-06-10T09:38:14;3.90;;;2.80;;
77310;SDS011;66371;52.714;5.074;2023-06-10T09:43:13;5.78;;;4.00;;
77310;SDS011;66371;52.714;5.074;2023-06-10T09:45:39;5.78;;;2.95;;
77310;SDS011;66371;52.714;5.074;2023-06-10T09:48:05;6.00;;;3.90;;
77310;SDS011;66371;52.714;5.074;2023-06-10T09:50:32;6.40;;;3.00;;
77310;SDS011;66371;52.714;5.074;2023-06-10T09:52:59;4.45;;;3.17;;
77310;SDS011;66371;52.714;5.074;2023-06-10T09:55:25;4.82;;;3.53;;
77310;SDS011;66371;52.714;5.074;2023-06-10T09:57:52;6.05;;;3.65;;
77310;SDS011;66371;52.714;5.074;2023-06-10T10:00:18;5.65;;;3.25;;
77310;SDS011;66371;52.714;5.074;2023-06-10T10:02:51;7.78;;;3.55;;
77310;SDS011;66371;52.714;5.074;2023-06-10T10:05:19;5.90;;;3.55;;
77310;SDS011;66371;52.714;5.074;2023-06-10T10:07:46;3.97;;;3.30;;
77310;SDS011;66371;52.714;5.074;2023-06-10T10:10:12;4.03;;;3.15;;
77310;SDS011;66371;52.714;5.074;2023-06-10T10:12:42;4.85;;;2.90;;
77310;SDS011;66371;52.714;5.074;2023-06-10T10:15:11;6.82;;;3.42;;
77310;SDS011;66371;52.714;5.074;2023-06-10T10:17:40;4.85;;;3.67;;
77310;SDS011;66371;52.714;5.074;2023-06-10T10:20:29;4.32;;;3.08;;
77310;SDS011;66371;52.714;5.074;2023-06-10T10:22:58;4.35;;;3.28;;
77310;SDS011;66371;52.714;5.074;2023-06-10T10:25:28;4.68;;;3.22;;
77310;SDS011;66371;52.714;5.074;2023-06-10T10:30:27;4.47;;;3.20;;
77310;SDS011;66371;52.714;5.074;2023-06-10T10:32:57;3.85;;;3.08;;
77310;SDS011;66371;52.714;5.074;2023-06-10T10:35:26;6.80;;;3.40;;
77310;SDS011;66371;52.714;5.074;2023-06-10T10:37:52;5.57;;;2.78;;
77310;SDS011;66371;52.714;5.074;2023-06-10T10:40:19;3.92;;;3.17;;
77310;SDS011;66371;52.714;5.074;2023-06-10T10:42:48;4.72;;;3.00;;
77310;SDS011;66371;52.714;5.074;2023-06-10T10:45:15;4.00;;;2.83;;
77310;SDS011;66371;52.714;5.074;2023-06-10T10:47:40;4.45;;;2.70;;
77310;SDS011;66371;52.714;5.074;2023-06-10T10:50:18;4.38;;;3.10;;
77310;SDS011;66371;52.714;5.074;2023-06-10T10:53:05;5.65;;;3.33;;
77310;SDS011;66371;52.714;5.074;2023-06-10T10:55:30;4.15;;;3.08;;
77310;SDS011;66371;52.714;5.074;2023-06-10T10:57:57;4.32;;;2.75;;
77310;SDS011;66371;52.714;5.074;2023-06-10T11:00:34;4.90;;;4.10;;
77310;SDS011;66371;52.714;5.074;2023-06-10T11:03:08;4.18;;;3.42;;
77310;SDS011;66371;52.714;5.074;2023-06-10T11:08:13;4.60;;;3.38;;
77310;SDS011;66371;52.714;5.074;2023-06-10T11:10:59;3.97;;;2.30;;
77310;SDS011;66371;52.714;5.074;2023-06-10T11:13:25;5.63;;;3.08;;
77310;SDS011;66371;52.714;5.074;2023-06-10T11:15:51;4.05;;;3.58;;
77310;SDS011;66371;52.714;5.074;2023-06-10T11:23:37;5.40;;;3.27;;
77310;SDS011;66371;52.714;5.074;2023-06-10T11:31:25;5.30;;;3.78;;
77310;SDS011;66371;52.714;5.074;2023-06-10T11:33:55;3.85;;;2.75;;
77310;SDS011;66371;52.714;5.074;2023-06-10T11:36:25;5.10;;;3.70;;
77310;SDS011;66371;52.714;5.074;2023-06-10T11:41:24;5.22;;;3.17;;
77310;SDS011;66371;52.714;5.074;2023-06-10T11:43:51;3.95;;;3.20;;
77310;SDS011;66371;52.714;5.074;2023-06-10T11:46:17;5.65;;;3.20;;
77310;SDS011;66371;52.714;5.074;2023-06-10T11:48:49;6.35;;;2.85;;
77310;SDS011;66371;52.714;5.074;2023-06-10T11:51:19;4.85;;;2.90;;
77310;SDS011;66371;52.714;5.074;2023-06-10T11:53:45;4.55;;;3.33;;
77310;SDS011;66371;52.714;5.074;2023-06-10T11:56:24;5.72;;;3.15;;
77310;SDS011;66371;52.714;5.074;2023-06-10T12:01:31;5.35;;;3.38;;
77310;SDS011;66371;52.714;5.074;2023-06-10T12:04:15;5.72;;;3.47;;
77310;SDS011;66371;52.714;5.074;2023-06-10T12:06:46;5.38;;;2.80;;
77310;SDS011;66371;52.714;5.074;2023-06-10T12:09:24;5.35;;;3.20;;
77310;SDS011;66371;52.714;5.074;2023-06-10T12:12:03;5.32;;;3.47;;
77310;SDS011;66371;52.714;5.074;2023-06-10T12:19:57;4.70;;;2.85;;
77310;SDS011;66371;52.714;5.074;2023-06-10T12:22:23;4.82;;;2.63;;
77310;SDS011;66371;52.714;5.074;2023-06-10T12:25:02;3.92;;;3.00;;
77310;SDS011;66371;52.714;5.074;2023-06-10T12:27:29;4.30;;;3.30;;
77310;SDS011;66371;52.714;5.074;2023-06-10T12:29:56;3.63;;;3.03;;
77310;SDS011;66371;52.714;5.074;2023-06-10T12:32:37;5.15;;;3.35;;
77310;SDS011;66371;52.714;5.074;2023-06-10T12:35:08;5.78;;;3.88;;
77310;SDS011;66371;52.714;5.074;2023-06-10T12:37:35;3.30;;;2.72;;
77310;SDS011;66371;52.714;5.074;2023-06-10T12:40:02;4.50;;;3.10;;
77310;SDS011;66371;52.714;5.074;2023-06-10T12:42:28;5.43;;;2.80;;
77310;SDS011;66371;52.714;5.074;2023-06-10T12:44:55;5.18;;;3.28;;
77310;SDS011;66371;52.714;5.074;2023-06-10T12:47:31;5.35;;;3.63;;
77310;SDS011;66371;52.714;5.074;2023-06-10T12:50:00;3.85;;;2.47;;
77310;SDS011;66371;52.714;5.074;2023-06-10T12:52:26;4.03;;;2.38;;
77310;SDS011;66371;52.714;5.074;2023-06-10T12:54:52;4.28;;;3.13;;
77310;SDS011;66371;52.714;5.074;2023-06-10T12:57:19;3.50;;;2.80;;
77310;SDS011;66371;52.714;5.074;2023-06-10T12:59:44;4.20;;;3.13;;
77310;SDS011;66371;52.714;5.074;2023-06-10T13:02:15;4.68;;;2.80;;
77310;SDS011;66371;52.714;5.074;2023-06-10T13:04:43;3.90;;;3.13;;
77310;SDS011;66371;52.714;5.074;2023-06-10T13:07:08;4.07;;;3.25;;
77310;SDS011;66371;52.714;5.074;2023-06-10T13:09:35;4.65;;;3.40;;
77310;SDS011;66371;52.714;5.074;2023-06-10T13:12:01;3.72;;;3.33;;
77310;SDS011;66371;52.714;5.074;2023-06-10T13:14:26;4.60;;;2.85;;
77310;SDS011;66371;52.714;5.074;2023-06-10T13:16:53;4.53;;;3.38;;
77310;SDS011;66371;52.714;5.074;2023-06-10T13:19:19;3.92;;;2.78;;
77310;SDS011;66371;52.714;5.074;2023-06-10T13:21:46;4.18;;;3.28;;
77310;SDS011;66371;52.714;5.074;2023-06-10T13:24:12;4.80;;;3.50;;
77310;SDS011;66371;52.714;5.074;2023-06-10T13:26:37;7.43;;;3.60;;
77310;SDS011;66371;52.714;5.074;2023-06-10T13:29:03;4.80;;;2.57;;
77310;SDS011;66371;52.714;5.074;2023-06-10T13:31:28;5.57;;;2.47;;
77310;SDS011;66371;52.714;5.074;2023-06-10T13:33:53;3.80;;;2.88;;
77310;SDS011;66371;52.714;5.074;2023-06-10T13:36:19;3.93;;;2.20;;
77310;SDS011;66371;52.714;5.074;2023-06-10T13:38:44;8.27;;;3.70;;
77310;SDS011;66371;52.714;5.074;2023-06-10T13:41:10;4.57;;;3.15;;
77310;SDS011;66371;52.714;5.074;2023-06-10T13:43:35;4.20;;;2.50;;
77310;SDS011;66371;52.714;5.074;2023-06-10T13:46:01;3.87;;;2.63;;
77310;SDS011;66371;52.714;5.074;2023-06-10T13:48:26;3.92;;;2.22;;
77310;SDS011;66371;52.714;5.074;2023-06-10T13:50:51;4.20;;;2.30;;
77310;SDS011;66371;52.714;5.074;2023-06-10T13:53:17;3.80;;;2.80;;
77310;SDS011;66371;52.714;5.074;2023-06-10T13:55:42;4.32;;;2.83;;
77310;SDS011;66371;52.714;5.074;2023-06-10T13:58:08;3.92;;;2.47;;
77310;SDS011;66371;52.714;5.074;2023-06-10T14:00:33;3.13;;;2.42;;
77310;SDS011;66371;52.714;5.074;2023-06-10T14:02:59;4.43;;;2.40;;
77310;SDS011;66371;52.714;5.074;2023-06-10T14:05:24;3.72;;;2.35;;
77310;SDS011;66371;52.714;5.074;2023-06-10T14:07:50;5.95;;;2.78;;
77310;SDS011;66371;52.714;5.074;2023-06-10T14:10:15;4.10;;;2.90;;
77310;SDS011;66371;52.714;5.074;2023-06-10T14:12:40;3.58;;;3.28;;
77310;SDS011;66371;52.714;5.074;2023-06-10T14:15:07;4.38;;;2.90;;
77310;SDS011;66371;52.714;5.074;2023-06-10T14:17:32;3.70;;;2.85;;
77310;SDS011;66371;52.714;5.074;2023-06-10T14:19:58;4.53;;;2.90;;
77310;SDS011;66371;52.714;5.074;2023-06-10T14:22:23;3.43;;;2.13;;
77310;SDS011;66371;52.714;5.074;2023-06-10T14:24:49;3.50;;;2.55;;
77310;SDS011;66371;52.714;5.074;2023-06-10T14:27:14;3.20;;;2.30;;
77310;SDS011;66371;52.714;5.074;2023-06-10T14:29:40;4.20;;;2.83;;
77310;SDS011;66371;52.714;5.074;2023-06-10T14:32:05;4.13;;;3.15;;
77310;SDS011;66371;52.714;5.074;2023-06-10T14:34:31;3.45;;;3.05;;
77310;SDS011;66371;52.714;5.074;2023-06-10T14:36:59;3.47;;;2.10;;
77310;SDS011;66371;52.714;5.074;2023-06-10T14:39:25;3.63;;;2.05;;
77310;SDS011;66371;52.714;5.074;2023-06-10T14:41:50;4.28;;;2.58;;
77310;SDS011;66371;52.714;5.074;2023-06-10T14:44:17;3.40;;;2.33;;
77310;SDS011;66371;52.714;5.074;2023-06-10T14:46:43;4.65;;;2.75;;
77310;SDS011;66371;52.714;5.074;2023-06-10T14:49:08;3.72;;;2.20;;
77310;SDS011;66371;52.714;5.074;2023-06-10T14:51:34;2.83;;;2.00;;
77310;SDS011;66371;52.714;5.074;2023-06-10T14:53:59;3.55;;;2.08;;
77310;SDS011;66371;52.714;5.074;2023-06-10T14:56:25;4.30;;;2.63;;
77310;SDS011;66371;52.714;5.074;2023-06-10T14:58:51;4.68;;;2.70;;
77310;SDS011;66371;52.714;5.074;2023-06-10T15:01:16;3.42;;;2.35;;
77310;SDS011;66371;52.714;5.074;2023-06-10T15:03:43;3.00;;;2.17;;
77310;SDS011;66371;52.714;5.074;2023-06-10T15:06:08;4.40;;;2.00;;
77310;SDS011;66371;52.714;5.074;2023-06-10T15:08:34;4.15;;;2.58;;
77310;SDS011;66371;52.714;5.074;2023-06-10T15:10:59;3.80;;;2.13;;
77310;SDS011;66371;52.714;5.074;2023-06-10T15:13:26;5.15;;;1.98;;
77310;SDS011;66371;52.714;5.074;2023-06-10T15:15:51;4.10;;;2.40;;
77310;SDS011;66371;52.714;5.074;2023-06-10T15:18:17;3.47;;;2.17;;
77310;SDS011;66371;52.714;5.074;2023-06-10T15:20:42;3.85;;;1.92;;
77310;SDS011;66371;52.714;5.074;2023-06-10T15:23:08;2.93;;;2.00;;
77310;SDS011;66371;52.714;5.074;2023-06-10T15:25:33;4.15;;;2.42;;
77310;SDS011;66371;52.714;5.074;2023-06-10T15:27:58;3.95;;;2.28;;
77310;SDS011;66371;52.714;5.074;2023-06-10T15:30:24;3.43;;;2.47;;